Time;durP1;ratioP1;P1;durP2;ratioP2;P2;SDS_P1;SDS_P2;PMS_P1;PMS_P2;Temp;Humidity;BMP_temperature;BMP_pressure;BME280_temperature;BME280_humidity;BME280_pressure;Samples;Min_cycle;Max_cycle;Signal;HPM_P1;HPM_P2
2022/01/31 00:01:25;;;;;;;8.98;4.60;;;;;;;;;;5041396;28;20048;-70
2022/01/31 00:03:50;;;;;;;12.18;4.78;;;;;;;;;;5042656;28;20029;-70
2022/01/31 00:06:15;;;;;;;12.52;4.35;;;;;;;;;;5042383;28;20078;-68
2022/01/31 00:08:42;;;;;;;18.73;4.65;;;;;;;;;;5042244;28;20037;-69
2022/01/31 00:11:08;;;;;;;10.63;4.57;;;;;;;;;;5041292;28;20041;-70
2022/01/31 00:13:40;;;;;;;13.35;5.13;;;;;;;;;;5042309;28;20040;-68
2022/01/31 00:16:08;;;;;;;11.43;4.60;;;;;;;;;;5040645;28;20123;-68
2022/01/31 00:18:34;;;;;;;9.35;3.92;;;;;;;;;;5042740;28;20079;-73
2022/01/31 00:20:59;;;;;;;11.38;4.13;;;;;;;;;;5043611;28;20068;-70
2022/01/31 00:23:25;;;;;;;11.73;4.15;;;;;;;;;;5042701;28;20565;-77
2022/01/31 00:25:50;;;;;;;13.23;3.92;;;;;;;;;;5044302;28;20041;-69
2022/01/31 00:28:16;;;;;;;9.60;4.40;;;;;;;;;;5043347;28;20131;-71
2022/01/31 00:30:41;;;;;;;5.22;3.63;;;;;;;;;;5042355;28;20044;-70
2022/01/31 00:33:08;;;;;;;17.45;3.72;;;;;;;;;;5042836;28;20797;-69
2022/01/31 00:35:35;;;;;;;12.95;4.03;;;;;;;;;;5045223;28;20045;-69
2022/01/31 00:38:01;;;;;;;13.88;4.50;;;;;;;;;;5046090;28;20051;-70
2022/01/31 00:40:26;;;;;;;6.80;3.65;;;;;;;;;;5043027;28;20068;-69
2022/01/31 00:42:52;;;;;;;14.68;3.95;;;;;;;;;;5041501;28;20069;-73
2022/01/31 00:45:26;;;;;;;23.17;4.70;;;;;;;;;;5040730;28;20041;-78
2022/01/31 00:48:01;;;;;;;12.02;3.95;;;;;;;;;;5042662;28;20025;-73
2022/01/31 00:50:37;;;;;;;10.27;4.00;;;;;;;;;;5025223;28;20119;-70
2022/01/31 00:53:02;;;;;;;14.02;3.72;;;;;;;;;;5041947;28;20036;-69
2022/01/31 00:55:28;;;;;;;12.07;3.80;;;;;;;;;;5039332;28;20064;-69
2022/01/31 00:57:53;;;;;;;10.75;3.92;;;;;;;;;;5041344;28;20076;-70
2022/01/31 01:00:19;;;;;;;8.98;3.70;;;;;;;;;;5039678;28;20095;-71
2022/01/31 01:02:45;;;;;;;10.68;3.17;;;;;;;;;;5040666;28;20036;-70
2022/01/31 01:05:11;;;;;;;13.60;3.75;;;;;;;;;;5039005;28;20856;-70
2022/01/31 01:07:36;;;;;;;9.73;3.25;;;;;;;;;;5041272;28;20037;-70
2022/01/31 01:10:03;;;;;;;13.82;3.55;;;;;;;;;;5040126;28;20179;-70
2022/01/31 01:12:29;;;;;;;11.02;3.58;;;;;;;;;;5040440;28;20028;-69
2022/01/31 01:14:54;;;;;;;10.45;3.85;;;;;;;;;;5039908;28;20072;-69
2022/01/31 01:17:20;;;;;;;6.15;3.08;;;;;;;;;;5040566;28;20047;-69
2022/01/31 01:19:45;;;;;;;10.68;3.88;;;;;;;;;;5039800;28;20045;-69
2022/01/31 01:22:12;;;;;;;9.68;2.97;;;;;;;;;;5023134;28;20908;-69
2022/01/31 01:24:37;;;;;;;9.75;2.80;;;;;;;;;;5041248;28;20148;-69
2022/01/31 01:27:03;;;;;;;11.98;3.25;;;;;;;;;;5038677;28;20214;-69
2022/01/31 01:29:29;;;;;;;5.15;2.38;;;;;;;;;;5039649;28;20103;-69
2022/01/31 01:31:55;;;;;;;7.85;2.40;;;;;;;;;;5023113;28;20477;-69
2022/01/31 01:34:26;;;;;;;12.25;3.38;;;;;;;;;;5039561;28;20035;-70
2022/01/31 01:36:53;;;;;;;8.43;3.15;;;;;;;;;;5022983;28;20091;-71
2022/01/31 01:39:19;;;;;;;11.10;2.95;;;;;;;;;;5038770;28;20033;-66
2022/01/31 01:41:46;;;;;;;11.00;2.60;;;;;;;;;;5039248;28;20493;-70
2022/01/31 01:44:12;;;;;;;13.57;3.08;;;;;;;;;;5039453;28;20033;-70
2022/01/31 01:46:37;;;;;;;9.68;3.55;;;;;;;;;;5044383;28;20489;-68
2022/01/31 01:49:03;;;;;;;9.35;3.05;;;;;;;;;;5046613;28;20512;-70
2022/01/31 01:51:30;;;;;;;8.93;3.13;;;;;;;;;;5049071;28;20102;-70
2022/01/31 01:54:00;;;;;;;7.97;2.90;;;;;;;;;;5048888;28;20041;-69
2022/01/31 01:56:27;;;;;;;5.38;3.28;;;;;;;;;;5046884;28;20087;-69
2022/01/31 01:58:53;;;;;;;11.20;3.63;;;;;;;;;;5038605;28;20032;-71
2022/01/31 02:01:19;;;;;;;8.70;3.42;;;;;;;;;;5038001;28;22135;-70
2022/01/31 02:03:49;;;;;;;11.85;3.65;;;;;;;;;;5047550;28;20041;-73
2022/01/31 02:06:16;;;;;;;7.18;2.97;;;;;;;;;;5048475;28;20059;-71
2022/01/31 02:08:43;;;;;;;9.45;3.22;;;;;;;;;;5047874;28;20041;-75
2022/01/31 02:11:13;;;;;;;10.05;3.50;;;;;;;;;;5047639;28;20486;-72
2022/01/31 02:13:43;;;;;;;11.98;4.03;;;;;;;;;;5048583;28;20043;-71
2022/01/31 02:16:27;;;;;;;9.90;3.35;;;;;;;;;;5049628;28;20595;-70
2022/01/31 02:18:58;;;;;;;8.98;3.20;;;;;;;;;;5046593;28;20055;-72
2022/01/31 02:21:54;;;;;;;7.95;3.45;;;;;;;;;;5049498;28;20059;-69
2022/01/31 02:24:38;;;;;;;10.65;3.72;;;;;;;;;;5047852;28;20102;-72
2022/01/31 02:27:28;;;;;;;6.30;2.92;;;;;;;;;;5046195;28;20075;-75
2022/01/31 02:29:54;;;;;;;12.00;3.60;;;;;;;;;;5046038;28;20044;-68
2022/01/31 02:32:22;;;;;;;6.82;3.35;;;;;;;;;;5045506;28;20155;-76
2022/01/31 02:34:52;;;;;;;7.55;3.78;;;;;;;;;;5045958;28;20051;-70
2022/01/31 02:37:19;;;;;;;11.20;3.33;;;;;;;;;;5046078;28;20347;-72
2022/01/31 02:39:46;;;;;;;9.07;3.80;;;;;;;;;;5046767;28;20401;-72
2022/01/31 02:42:13;;;;;;;9.80;3.60;;;;;;;;;;5045905;28;20783;-71
2022/01/31 02:44:44;;;;;;;10.60;3.95;;;;;;;;;;5045220;28;20126;-69
2022/01/31 02:47:22;;;;;;;12.32;3.85;;;;;;;;;;5045370;28;20037;-70
2022/01/31 02:49:55;;;;;;;9.98;3.70;;;;;;;;;;5035564;28;20155;-73
2022/01/31 02:52:25;;;;;;;9.48;3.45;;;;;;;;;;5046023;28;20040;-75
2022/01/31 02:54:51;;;;;;;7.80;3.20;;;;;;;;;;5044917;28;20095;-75
2022/01/31 02:57:17;;;;;;;13.25;4.63;;;;;;;;;;5043293;28;20115;-72
2022/01/31 02:59:43;;;;;;;9.10;3.20;;;;;;;;;;5042656;28;20367;-70
2022/01/31 03:02:09;;;;;;;14.88;3.05;;;;;;;;;;5026353;28;20032;-69
2022/01/31 03:04:34;;;;;;;8.20;2.95;;;;;;;;;;5042812;28;20037;-67
2022/01/31 03:07:05;;;;;;;8.65;3.25;;;;;;;;;;5040688;28;20040;-69
2022/01/31 03:09:30;;;;;;;11.90;3.40;;;;;;;;;;5042469;28;20029;-69
2022/01/31 03:11:58;;;;;;;14.82;3.55;;;;;;;;;;5042207;28;20037;-70
2022/01/31 03:14:31;;;;;;;5.53;2.65;;;;;;;;;;5041855;28;20512;-70
2022/01/31 03:16:57;;;;;;;8.85;3.10;;;;;;;;;;5040923;28;20037;-70
2022/01/31 03:19:33;;;;;;;13.23;3.45;;;;;;;;;;5041686;28;20036;-71
2022/01/31 03:22:00;;;;;;;7.03;2.63;;;;;;;;;;5041648;28;20047;-70
2022/01/31 03:24:26;;;;;;;8.88;2.80;;;;;;;;;;5041862;28;20033;-69
2022/01/31 03:26:51;;;;;;;8.52;3.13;;;;;;;;;;5043066;28;20086;-70
2022/01/31 03:29:17;;;;;;;8.48;3.05;;;;;;;;;;5042087;28;20103;-69
2022/01/31 03:31:42;;;;;;;9.52;3.83;;;;;;;;;;5043214;28;20033;-70
2022/01/31 03:34:08;;;;;;;16.40;5.78;;;;;;;;;;5041700;28;20040;-69
2022/01/31 03:36:34;;;;;;;15.43;4.93;;;;;;;;;;5041728;28;20123;-70
2022/01/31 03:38:59;;;;;;;15.25;4.65;;;;;;;;;;5040508;28;20065;-70
2022/01/31 03:41:26;;;;;;;14.23;5.38;;;;;;;;;;5040966;28;20025;-70
2022/01/31 03:43:52;;;;;;;18.02;5.13;;;;;;;;;;5041504;28;20409;-69
2022/01/31 03:46:17;;;;;;;15.60;4.97;;;;;;;;;;5041214;28;20037;-70
2022/01/31 03:48:45;;;;;;;12.85;4.40;;;;;;;;;;5041288;28;20906;-69
2022/01/31 03:51:30;;;;;;;8.77;3.55;;;;;;;;;;5041970;28;20044;-70
2022/01/31 03:53:56;;;;;;;11.07;3.10;;;;;;;;;;5041080;28;20045;-69
2022/01/31 03:56:22;;;;;;;9.43;3.15;;;;;;;;;;5041600;28;20056;-68
2022/01/31 03:58:59;;;;;;;9.30;3.53;;;;;;;;;;5040945;28;20032;-66
2022/01/31 04:01:26;;;;;;;10.20;3.45;;;;;;;;;;5039890;28;20029;-69
2022/01/31 04:03:51;;;;;;;13.93;3.60;;;;;;;;;;5042832;28;20043;-69
2022/01/31 04:06:17;;;;;;;7.70;3.38;;;;;;;;;;5042315;28;20083;-70
2022/01/31 04:08:42;;;;;;;11.57;3.40;;;;;;;;;;5041179;28;20375;-74
2022/01/31 04:11:10;;;;;;;12.73;3.50;;;;;;;;;;5042505;28;20059;-68
2022/01/31 04:13:36;;;;;;;8.23;3.83;;;;;;;;;;5042927;28;20048;-69
2022/01/31 04:16:02;;;;;;;17.13;5.03;;;;;;;;;;5042325;28;20045;-69
2022/01/31 04:18:27;;;;;;;24.02;4.72;;;;;;;;;;5042179;28;20049;-69
2022/01/31 04:20:53;;;;;;;12.85;4.57;;;;;;;;;;5042510;28;20087;-69
2022/01/31 04:23:20;;;;;;;14.93;4.53;;;;;;;;;;5041350;28;20040;-69
2022/01/31 04:25:53;;;;;;;11.65;4.60;;;;;;;;;;5042262;28;20064;-69
2022/01/31 04:28:24;;;;;;;15.57;4.93;;;;;;;;;;5042069;28;20140;-67
2022/01/31 04:30:56;;;;;;;16.63;4.78;;;;;;;;;;5041762;28;20059;-67
2022/01/31 04:33:22;;;;;;;10.77;4.00;;;;;;;;;;5041959;28;20144;-69
2022/01/31 04:35:48;;;;;;;10.85;4.15;;;;;;;;;;5041915;28;20033;-69
2022/01/31 04:38:14;;;;;;;11.07;4.43;;;;;;;;;;5042375;28;20047;-69
2022/01/31 04:40:39;;;;;;;15.07;3.95;;;;;;;;;;5041702;28;20143;-68
2022/01/31 04:43:05;;;;;;;8.52;3.38;;;;;;;;;;5042662;28;20123;-76
2022/01/31 04:45:30;;;;;;;13.05;3.20;;;;;;;;;;5041279;28;20391;-70
2022/01/31 04:47:56;;;;;;;8.63;2.80;;;;;;;;;;5041816;28;20060;-70
2022/01/31 04:50:21;;;;;;;13.50;3.33;;;;;;;;;;5038630;28;20041;-70
2022/01/31 04:52:47;;;;;;;14.82;3.25;;;;;;;;;;5041257;28;20059;-70
2022/01/31 04:55:12;;;;;;;10.52;3.20;;;;;;;;;;5040626;28;20331;-69
2022/01/31 04:57:38;;;;;;;5.97;2.63;;;;;;;;;;5041378;28;20458;-69
2022/01/31 05:00:07;;;;;;;7.70;2.55;;;;;;;;;;5041423;28;20413;-69
2022/01/31 05:02:32;;;;;;;7.57;2.75;;;;;;;;;;5039362;28;20095;-69
2022/01/31 05:04:58;;;;;;;14.30;3.10;;;;;;;;;;5040615;28;20130;-69
2022/01/31 05:07:23;;;;;;;11.15;3.70;;;;;;;;;;5040318;28;20095;-69
2022/01/31 05:09:49;;;;;;;11.85;3.50;;;;;;;;;;5041596;28;20059;-69
2022/01/31 05:12:14;;;;;;;8.05;2.40;;;;;;;;;;5041108;28;20123;-69
2022/01/31 05:14:40;;;;;;;6.93;3.03;;;;;;;;;;5041315;28;20036;-69
2022/01/31 05:17:05;;;;;;;9.70;3.20;;;;;;;;;;5041023;28;20056;-69
2022/01/31 05:19:31;;;;;;;12.20;3.08;;;;;;;;;;5040135;28;20064;-68
2022/01/31 05:21:56;;;;;;;8.82;2.60;;;;;;;;;;5038883;28;20052;-69
2022/01/31 05:24:21;;;;;;;8.40;2.40;;;;;;;;;;5039856;28;20610;-69
2022/01/31 05:26:50;;;;;;;12.27;2.97;;;;;;;;;;5041063;28;20050;-69
2022/01/31 05:29:17;;;;;;;8.88;2.63;;;;;;;;;;5039783;28;20070;-69
2022/01/31 05:31:42;;;;;;;10.07;3.00;;;;;;;;;;5042852;28;20124;-72
2022/01/31 05:34:07;;;;;;;11.20;2.83;;;;;;;;;;5041596;28;20087;-72
2022/01/31 05:36:33;;;;;;;11.20;2.97;;;;;;;;;;5038053;28;20053;-75
2022/01/31 05:38:58;;;;;;;11.45;3.38;;;;;;;;;;5039208;28;20048;-70
2022/01/31 05:41:23;;;;;;;9.80;2.72;;;;;;;;;;5040232;28;20732;-70
2022/01/31 05:43:49;;;;;;;11.55;3.53;;;;;;;;;;5040542;28;20045;-72
2022/01/31 05:46:15;;;;;;;6.47;2.67;;;;;;;;;;5040632;28;20044;-70
2022/01/31 05:48:40;;;;;;;7.28;2.78;;;;;;;;;;5040757;28;20044;-71
2022/01/31 05:51:17;;;;;;;8.68;2.53;;;;;;;;;;5040059;28;20132;-72
2022/01/31 05:53:43;;;;;;;7.15;2.47;;;;;;;;;;5041603;28;20084;-70
2022/01/31 05:56:10;;;;;;;3.75;2.05;;;;;;;;;;5040354;28;20098;-70
2022/01/31 05:58:35;;;;;;;14.40;3.60;;;;;;;;;;5040234;28;20049;-69
2022/01/31 06:01:01;;;;;;;10.50;3.95;;;;;;;;;;5040220;28;20103;-69
2022/01/31 06:03:26;;;;;;;8.80;3.95;;;;;;;;;;5039728;28;20060;-70
2022/01/31 06:05:52;;;;;;;4.55;2.60;;;;;;;;;;5040229;28;20033;-69
2022/01/31 06:08:17;;;;;;;2.42;1.60;;;;;;;;;;5040315;28;20051;-71
2022/01/31 06:10:45;;;;;;;10.88;3.05;;;;;;;;;;5040733;28;20406;-69
2022/01/31 06:13:10;;;;;;;5.63;3.00;;;;;;;;;;5038419;28;20144;-72
2022/01/31 06:15:39;;;;;;;7.53;3.03;;;;;;;;;;5040625;28;20659;-69
2022/01/31 06:18:04;;;;;;;12.00;3.47;;;;;;;;;;5040186;28;20068;-69
2022/01/31 06:20:30;;;;;;;7.57;2.58;;;;;;;;;;5040930;28;20083;-69
2022/01/31 06:22:55;;;;;;;6.00;2.60;;;;;;;;;;5039257;28;20053;-70
2022/01/31 06:25:21;;;;;;;9.00;2.53;;;;;;;;;;5039360;28;20827;-69
2022/01/31 06:27:47;;;;;;;3.55;2.70;;;;;;;;;;5038145;28;20037;-69
2022/01/31 06:30:13;;;;;;;5.97;2.72;;;;;;;;;;5054720;28;20025;-69
2022/01/31 06:32:43;;;;;;;9.32;3.10;;;;;;;;;;5041546;28;21066;-69
2022/01/31 06:35:09;;;;;;;7.97;3.05;;;;;;;;;;5042006;28;20087;-69
2022/01/31 06:37:35;;;;;;;5.95;3.20;;;;;;;;;;5043674;28;20068;-69
2022/01/31 06:40:01;;;;;;;6.00;3.78;;;;;;;;;;5043684;28;20036;-69
2022/01/31 06:42:26;;;;;;;12.35;5.55;;;;;;;;;;5041515;28;20063;-70
2022/01/31 06:44:52;;;;;;;8.10;3.83;;;;;;;;;;5041636;28;20122;-71
2022/01/31 06:47:19;;;;;;;6.70;3.08;;;;;;;;;;5040405;28;20417;-71
2022/01/31 06:49:45;;;;;;;9.77;4.13;;;;;;;;;;5042757;28;20119;-70
2022/01/31 06:52:10;;;;;;;6.32;4.07;;;;;;;;;;5042756;28;20028;-71
2022/01/31 06:54:36;;;;;;;16.05;4.18;;;;;;;;;;5041520;28;20131;-70
2022/01/31 06:57:04;;;;;;;5.60;3.10;;;;;;;;;;5042232;28;20032;-71
2022/01/31 06:59:29;;;;;;;8.32;4.78;;;;;;;;;;5042388;28;20040;-71
2022/01/31 07:01:55;;;;;;;8.63;4.05;;;;;;;;;;5040839;28;20040;-71
2022/01/31 07:04:20;;;;;;;11.25;3.30;;;;;;;;;;5042740;28;20056;-70
2022/01/31 07:06:46;;;;;;;5.78;2.75;;;;;;;;;;5042489;28;20048;-71
2022/01/31 07:09:12;;;;;;;3.88;1.95;;;;;;;;;;5041267;28;20033;-70
2022/01/31 07:11:40;;;;;;;10.00;4.03;;;;;;;;;;5042276;28;20563;-70
2022/01/31 07:14:13;;;;;;;6.47;3.08;;;;;;;;;;5042760;28;20477;-70
2022/01/31 07:16:39;;;;;;;8.07;3.50;;;;;;;;;;5043034;28;20037;-72
2022/01/31 07:19:08;;;;;;;5.97;2.78;;;;;;;;;;5041528;28;20032;-71
2022/01/31 07:21:45;;;;;;;5.63;2.20;;;;;;;;;;5024852;28;20029;-71
2022/01/31 07:26:36;;;;;;;10.05;2.85;;;;;;;;;;5043269;28;20031;-75
2022/01/31 07:29:02;;;;;;;10.57;4.28;;;;;;;;;;5043045;28;20036;-69
2022/01/31 07:31:27;;;;;;;6.32;2.53;;;;;;;;;;5042489;28;20041;-73
2022/01/31 07:33:53;;;;;;;6.05;3.03;;;;;;;;;;5043226;28;20072;-72
2022/01/31 07:36:18;;;;;;;10.00;3.40;;;;;;;;;;5039511;28;20148;-72
2022/01/31 07:38:44;;;;;;;4.45;2.08;;;;;;;;;;5039774;28;20120;-72
2022/01/31 07:41:14;;;;;;;8.88;2.72;;;;;;;;;;5041630;28;20048;-72
2022/01/31 07:43:43;;;;;;;5.55;2.45;;;;;;;;;;5042078;28;20040;-71
2022/01/31 07:46:10;;;;;;;5.60;1.90;;;;;;;;;;5040500;28;20585;-71
2022/01/31 07:48:36;;;;;;;6.57;2.45;;;;;;;;;;5039370;28;20517;-73
2022/01/31 07:51:01;;;;;;;3.88;2.28;;;;;;;;;;5040424;28;20033;-71
2022/01/31 07:53:26;;;;;;;3.20;1.70;;;;;;;;;;5040937;28;20036;-71
2022/01/31 07:55:52;;;;;;;2.95;1.92;;;;;;;;;;5040891;28;20090;-71
2022/01/31 07:58:20;;;;;;;5.72;2.83;;;;;;;;;;5040930;28;20094;-71
2022/01/31 08:00:45;;;;;;;7.78;2.45;;;;;;;;;;5040831;28;20576;-71
2022/01/31 08:03:11;;;;;;;6.30;1.98;;;;;;;;;;5034610;28;20041;-71
2022/01/31 08:05:37;;;;;;;4.22;1.98;;;;;;;;;;5038049;28;20106;-72
2022/01/31 08:08:03;;;;;;;7.00;2.33;;;;;;;;;;5038111;28;20040;-71
2022/01/31 08:10:28;;;;;;;6.82;2.10;;;;;;;;;;5039060;28;20037;-72
2022/01/31 08:12:55;;;;;;;7.90;2.40;;;;;;;;;;5041105;28;20043;-72
2022/01/31 08:15:26;;;;;;;8.85;2.75;;;;;;;;;;5038175;28;20601;-72
2022/01/31 08:17:51;;;;;;;3.78;1.70;;;;;;;;;;5040406;28;20028;-71
2022/01/31 08:20:17;;;;;;;7.00;1.90;;;;;;;;;;5038744;28;20122;-72
2022/01/31 08:22:42;;;;;;;4.05;2.13;;;;;;;;;;5039151;28;20037;-73
2022/01/31 08:25:13;;;;;;;6.53;2.08;;;;;;;;;;5040197;28;20105;-71
2022/01/31 08:27:41;;;;;;;4.57;2.53;;;;;;;;;;5040156;28;20051;-71
2022/01/31 08:30:11;;;;;;;2.42;1.30;;;;;;;;;;5040950;28;20759;-71
2022/01/31 08:32:44;;;;;;;4.07;2.10;;;;;;;;;;5040754;28;20210;-72
2022/01/31 08:37:55;;;;;;;8.35;2.08;;;;;;;;;;5041850;28;20432;-71
2022/01/31 08:40:22;;;;;;;6.63;2.60;;;;;;;;;;5040764;28;20040;-69
2022/01/31 08:42:48;;;;;;;7.45;2.22;;;;;;;;;;5040585;28;20041;-71
2022/01/31 08:45:14;;;;;;;11.05;2.97;;;;;;;;;;5011343;28;20139;-71
2022/01/31 08:47:41;;;;;;;6.35;2.13;;;;;;;;;;5021213;28;20128;-72
2022/01/31 08:50:09;;;;;;;4.90;2.55;;;;;;;;;;5041013;28;20066;-72
2022/01/31 08:52:38;;;;;;;4.75;2.22;;;;;;;;;;5039745;28;20039;-73
2022/01/31 08:55:06;;;;;;;5.15;2.33;;;;;;;;;;5038650;28;20043;-70
2022/01/31 08:57:31;;;;;;;3.08;1.77;;;;;;;;;;5039665;28;20028;-69
2022/01/31 08:59:58;;;;;;;2.35;1.77;;;;;;;;;;5039476;28;20049;-69
2022/01/31 09:02:37;;;;;;;8.95;2.63;;;;;;;;;;5040626;28;20501;-69
2022/01/31 09:05:04;;;;;;;5.07;2.83;;;;;;;;;;5039768;28;20563;-71
2022/01/31 09:07:30;;;;;;;7.70;2.70;;;;;;;;;;5038968;28;20107;-70
2022/01/31 09:09:59;;;;;;;5.57;2.75;;;;;;;;;;5038131;28;20132;-72
2022/01/31 09:12:29;;;;;;;5.70;2.28;;;;;;;;;;5039167;28;20083;-72
2022/01/31 09:14:55;;;;;;;7.28;2.60;;;;;;;;;;5039489;28;20041;-73
2022/01/31 09:17:29;;;;;;;5.82;2.10;;;;;;;;;;5040422;28;20033;-73
2022/01/31 09:19:57;;;;;;;4.93;2.63;;;;;;;;;;5038099;28;20060;-71
2022/01/31 09:22:26;;;;;;;2.15;1.95;;;;;;;;;;5038471;28;20112;-71
2022/01/31 09:24:53;;;;;;;2.22;2.03;;;;;;;;;;5039709;28;20044;-71
2022/01/31 09:27:19;;;;;;;3.67;2.72;;;;;;;;;;5040513;28;20059;-70
2022/01/31 09:29:46;;;;;;;5.40;3.15;;;;;;;;;;5040521;28;20102;-71
2022/01/31 09:32:20;;;;;;;9.55;3.05;;;;;;;;;;5039636;28;20040;-70
2022/01/31 09:34:46;;;;;;;12.18;4.00;;;;;;;;;;5040355;28;20217;-73
2022/01/31 09:37:12;;;;;;;5.70;3.13;;;;;;;;;;5040106;28;20456;-72
2022/01/31 09:39:38;;;;;;;3.22;1.95;;;;;;;;;;5038252;28;20040;-73
2022/01/31 09:42:10;;;;;;;4.72;2.53;;;;;;;;;;5039845;28;20104;-73
2022/01/31 09:44:48;;;;;;;;;;;;;;;;;;5038751;28;20078;-72
2022/01/31 09:47:23;;;;;;;4.97;2.95;;;;;;;;;;5038343;28;19916;-71
2022/01/31 09:49:51;;;;;;;5.05;3.15;;;;;;;;;;5040485;28;20659;-71
2022/01/31 09:52:19;;;;;;;6.30;3.05;;;;;;;;;;5038631;28;20033;-71
2022/01/31 09:54:48;;;;;;;2.65;2.30;;;;;;;;;;5039306;28;20578;-73
2022/01/31 09:57:16;;;;;;;3.72;2.90;;;;;;;;;;5039974;28;20044;-71
2022/01/31 09:59:42;;;;;;;5.35;3.08;;;;;;;;;;5039554;28;20044;-71
2022/01/31 10:02:12;;;;;;;4.03;2.72;;;;;;;;;;5039644;28;20041;-73
2022/01/31 10:05:13;;;;;;;5.32;2.15;;;;;;;;;;5037590;28;20057;-73
2022/01/31 10:07:46;;;;;;;3.92;2.47;;;;;;;;;;5041730;28;20132;-72
2022/01/31 10:10:21;;;;;;;3.67;2.85;;;;;;;;;;5043460;28;20115;-73
2022/01/31 10:18:08;;;;;;;3.05;1.95;;;;;;;;;;5042423;28;20041;-72
2022/01/31 10:20:36;;;;;;;7.25;3.05;;;;;;;;;;5042468;28;20120;-73
2022/01/31 10:23:15;;;;;;;4.93;2.40;;;;;;;;;;5043179;28;20064;-73
2022/01/31 10:25:43;;;;;;;3.72;2.95;;;;;;;;;;5024721;28;20397;-74
2022/01/31 10:28:18;;;;;;;5.65;2.63;;;;;;;;;;5042680;28;20036;-72
2022/01/31 10:30:46;;;;;;;2.30;2.10;;;;;;;;;;5045715;28;20090;-71
2022/01/31 10:33:13;;;;;;;2.40;2.20;;;;;;;;;;5045593;28;20040;-72
2022/01/31 10:35:41;;;;;;;3.00;2.10;;;;;;;;;;5044480;28;20063;-72
2022/01/31 10:38:18;;;;;;;1.50;1.40;;;;;;;;;;5042967;28;20119;-72
2022/01/31 10:57:05;;;;;;;2.50;1.50;;;;;;;;;;5041849;28;20073;-72
2022/01/31 10:59:35;;;;;;;10.45;1.25;;;;;;;;;;5024184;28;20037;-69
2022/01/31 11:02:04;;;;;;;2.40;1.83;;;;;;;;;;5043056;28;20064;-72
2022/01/31 11:04:38;;;;;;;1.52;1.42;;;;;;;;;;5042457;28;20594;-72
2022/01/31 11:07:10;;;;;;;1.45;1.35;;;;;;;;;;5041294;28;21033;-72
2022/01/31 11:09:37;;;;;;;1.88;1.77;;;;;;;;;;5041192;28;20559;-72
2022/01/31 11:12:05;;;;;;;2.53;1.75;;;;;;;;;;5041908;28;20504;-72
2022/01/31 11:14:38;;;;;;;1.33;1.23;;;;;;;;;;5042316;28;20551;-72
2022/01/31 11:17:10;;;;;;;1.17;0.82;;;;;;;;;;5041148;28;20037;-71
2022/01/31 11:19:40;;;;;;;0.95;0.95;;;;;;;;;;5040175;28;20033;-68
2022/01/31 11:22:09;;;;;;;2.97;1.10;;;;;;;;;;5042098;28;20397;-72
2022/01/31 11:24:59;;;;;;;3.67;1.77;;;;;;;;;;5037345;28;20122;-71
2022/01/31 11:27:26;;;;;;;1.05;0.95;;;;;;;;;;5040614;28;20468;-72
2022/01/31 11:29:55;;;;;;;2.95;1.98;;;;;;;;;;5041326;28;20747;-71
2022/01/31 11:32:26;;;;;;;1.52;1.42;;;;;;;;;;5041525;28;20032;-71
2022/01/31 11:34:54;;;;;;;1.30;1.20;;;;;;;;;;5042924;28;20033;-72
2022/01/31 11:37:21;;;;;;;1.63;1.52;;;;;;;;;;5042847;28;20774;-71
2022/01/31 11:39:56;;;;;;;1.45;1.35;;;;;;;;;;5041936;28;20470;-77
2022/01/31 11:42:22;;;;;;;1.45;1.00;;;;;;;;;;5040455;28;20125;-75
2022/01/31 11:44:59;;;;;;;0.75;0.75;;;;;;;;;;5042300;28;20568;-76
2022/01/31 11:47:28;;;;;;;2.55;1.10;;;;;;;;;;5042756;28;20526;-75
2022/01/31 11:50:13;;;;;;;3.58;0.93;;;;;;;;;;5024052;28;20041;-74
2022/01/31 11:52:58;;;;;;;1.10;1.10;;;;;;;;;;5039658;28;20115;-71
2022/01/31 11:55:29;;;;;;;1.05;1.05;;;;;;;;;;5040348;28;20025;-74
2022/01/31 11:57:57;;;;;;;2.58;1.30;;;;;;;;;;5041622;28;20397;-73
2022/01/31 12:00:27;;;;;;;1.60;1.10;;;;;;;;;;5040294;28;20028;-75
2022/01/31 12:03:04;;;;;;;0.98;0.98;;;;;;;;;;5041619;28;20449;-75
2022/01/31 12:05:33;;;;;;;1.25;1.15;;;;;;;;;;5040849;28;20041;-74
2022/01/31 12:08:15;;;;;;;0.77;0.75;;;;;;;;;;5040252;28;20033;-76
2022/01/31 12:10:47;;;;;;;3.10;0.98;;;;;;;;;;5041673;28;20116;-73
2022/01/31 12:13:40;;;;;;;1.13;1.05;;;;;;;;;;5040126;28;20047;-74
2022/01/31 12:16:23;;;;;;;;;;;;;;;;;;5039903;28;20068;-75
2022/01/31 12:22:00;;;;;;;1.25;1.10;;;;;;;;;;5065687;28;20036;-74
2022/01/31 12:24:30;;;;;;;1.02;1.02;;;;;;;;;;5025519;28;20139;-75
2022/01/31 12:27:06;;;;;;;0.90;0.90;;;;;;;;;;5043067;28;20033;-75
2022/01/31 12:29:36;;;;;;;2.05;0.90;;;;;;;;;;5039134;28;20036;-75
2022/01/31 12:32:17;;;;;;;2.28;0.93;;;;;;;;;;5037035;28;20025;-73
2022/01/31 12:35:03;;;;;;;0.70;0.70;;;;;;;;;;5040020;28;20045;-73
2022/01/31 12:37:35;;;;;;;0.80;0.80;;;;;;;;;;5036912;28;21050;-74
2022/01/31 12:40:12;;;;;;;0.60;0.60;;;;;;;;;;5040862;28;20041;-73
2022/01/31 12:45:21;;;;;;;1.05;0.93;;;;;;;;;;5038773;28;20575;-71
2022/01/31 12:48:21;;;;;;;1.10;0.50;;;;;;;;;;5039586;28;20145;-74
2022/01/31 12:50:53;;;;;;;1.35;0.82;;;;;;;;;;5042389;28;20033;-73
2022/01/31 12:53:23;;;;;;;1.20;0.88;;;;;;;;;;5024161;28;20094;-73
2022/01/31 12:56:01;;;;;;;0.98;0.77;;;;;;;;;;5041048;28;21216;-73
2022/01/31 12:59:13;;;;;;;1.52;1.17;;;;;;;;;;5040365;28;20037;-71
2022/01/31 13:01:47;;;;;;;0.93;0.80;;;;;;;;;;5039984;28;20052;-73
2022/01/31 13:04:34;;;;;;;3.88;1.55;;;;;;;;;;5044348;28;20053;-74
2022/01/31 13:07:05;;;;;;;0.93;0.88;;;;;;;;;;5024826;28;20048;-72
2022/01/31 13:09:38;;;;;;;2.55;1.10;;;;;;;;;;5037267;28;20029;-72
2022/01/31 13:12:14;;;;;;;1.70;1.20;;;;;;;;;;5041868;28;20033;-73
2022/01/31 13:14:49;;;;;;;1.38;0.90;;;;;;;;;;5038815;28;20032;-73
2022/01/31 13:17:19;;;;;;;0.60;0.60;;;;;;;;;;5037924;28;20052;-72
2022/01/31 13:19:47;;;;;;;1.05;0.95;;;;;;;;;;5038887;28;20176;-71
2022/01/31 13:22:26;;;;;;;1.48;0.88;;;;;;;;;;5037321;28;20029;-72
2022/01/31 13:24:57;;;;;;;1.92;1.17;;;;;;;;;;5037685;28;20041;-71
2022/01/31 13:27:35;;;;;;;0.70;0.60;;;;;;;;;;5038216;28;20033;-71
2022/01/31 13:30:06;;;;;;;2.05;0.85;;;;;;;;;;5037049;28;20106;-71
2022/01/31 13:32:35;;;;;;;0.50;0.50;;;;;;;;;;5037501;28;20025;-72
2022/01/31 13:35:13;;;;;;;2.97;1.17;;;;;;;;;;5037327;28;20028;-72
2022/01/31 13:37:44;;;;;;;1.83;0.88;;;;;;;;;;5037622;28;20040;-73
2022/01/31 13:40:13;;;;;;;3.72;1.30;;;;;;;;;;5039735;28;20167;-69
2022/01/31 13:42:42;;;;;;;2.80;0.80;;;;;;;;;;5036996;28;20375;-71
2022/01/31 13:45:27;;;;;;;0.50;0.50;;;;;;;;;;5039097;28;20041;-72
2022/01/31 13:48:11;;;;;;;1.10;0.70;;;;;;;;;;5037302;28;20017;-73
2022/01/31 13:51:00;;;;;;;0.98;0.88;;;;;;;;;;5039411;28;20082;-71
2022/01/31 13:53:38;;;;;;;1.02;0.93;;;;;;;;;;5039558;28;21027;-71
2022/01/31 13:56:09;;;;;;;0.95;0.80;;;;;;;;;;5038291;28;20037;-71
2022/01/31 13:58:41;;;;;;;1.92;1.10;;;;;;;;;;5037380;28;20032;-71
2022/01/31 14:01:18;;;;;;;0.88;0.88;;;;;;;;;;5039748;28;20037;-72
2022/01/31 14:03:47;;;;;;;0.50;0.50;;;;;;;;;;5039963;28;20051;-71
2022/01/31 14:06:14;;;;;;;0.95;0.90;;;;;;;;;;5038154;28;20033;-73
2022/01/31 14:08:43;;;;;;;1.67;1.00;;;;;;;;;;5039615;28;20082;-72
2022/01/31 14:11:10;;;;;;;1.85;0.85;;;;;;;;;;5040564;28;20040;-72
2022/01/31 14:13:38;;;;;;;0.90;0.90;;;;;;;;;;5039811;28;20387;-71
2022/01/31 14:16:04;;;;;;;1.77;1.15;;;;;;;;;;5037792;28;20367;-73
2022/01/31 14:18:32;;;;;;;0.73;0.73;;;;;;;;;;5037027;28;20049;-73
2022/01/31 14:21:06;;;;;;;1.70;1.00;;;;;;;;;;5028026;28;20044;-73
2022/01/31 14:23:40;;;;;;;1.70;1.20;;;;;;;;;;5036936;28;20044;-74
2022/01/31 14:26:07;;;;;;;1.73;0.90;;;;;;;;;;5036319;28;20120;-76
2022/01/31 14:28:38;;;;;;;0.80;0.80;;;;;;;;;;5035823;28;20045;-73
2022/01/31 14:31:05;;;;;;;1.83;1.10;;;;;;;;;;5037483;28;20029;-75
2022/01/31 14:33:31;;;;;;;1.95;1.00;;;;;;;;;;5036484;28;20280;-74
2022/01/31 14:36:08;;;;;;;1.02;0.93;;;;;;;;;;5038558;28;20052;-75
2022/01/31 14:38:47;;;;;;;2.00;0.73;;;;;;;;;;5039029;28;20051;-74
2022/01/31 14:49:21;;;;;;;1.13;0.98;;;;;;;;;;5038639;28;20040;-73
2022/01/31 14:51:49;;;;;;;5.25;1.00;;;;;;;;;;5039237;28;20051;-72
2022/01/31 14:54:16;;;;;;;3.28;1.10;;;;;;;;;;5042325;28;20110;-75
2022/01/31 14:56:43;;;;;;;1.10;1.00;;;;;;;;;;5039247;28;20040;-73
2022/01/31 14:59:09;;;;;;;0.85;0.82;;;;;;;;;;5041427;28;20064;-72
2022/01/31 15:01:35;;;;;;;1.23;0.90;;;;;;;;;;5041883;28;20119;-74
2022/01/31 15:04:01;;;;;;;3.50;1.05;;;;;;;;;;5040813;28;20827;-75
2022/01/31 15:06:27;;;;;;;1.30;0.80;;;;;;;;;;5041655;28;21089;-73
2022/01/31 15:08:52;;;;;;;1.95;0.70;;;;;;;;;;5041718;28;20106;-74
2022/01/31 15:11:18;;;;;;;0.85;0.55;;;;;;;;;;5040706;28;20064;-73
2022/01/31 15:13:46;;;;;;;0.70;0.70;;;;;;;;;;5041186;28;20132;-73
2022/01/31 15:16:15;;;;;;;0.50;0.50;;;;;;;;;;5042349;28;20029;-74
2022/01/31 15:18:41;;;;;;;0.80;0.80;;;;;;;;;;5040895;28;20039;-74
2022/01/31 15:21:12;;;;;;;1.30;1.15;;;;;;;;;;5039965;28;20044;-73
2022/01/31 15:23:39;;;;;;;1.30;1.10;;;;;;;;;;5041724;28;20052;-74
2022/01/31 15:26:07;;;;;;;3.58;1.10;;;;;;;;;;5023957;28;20120;-73
2022/01/31 15:28:34;;;;;;;2.15;1.30;;;;;;;;;;5041089;28;20106;-73
2022/01/31 15:31:01;;;;;;;1.20;0.80;;;;;;;;;;5038682;28;20087;-71
2022/01/31 15:33:26;;;;;;;1.60;1.10;;;;;;;;;;5038423;28;20036;-72